Terminal Aerodrome Forecast
Issued by NWS Jackson, KY

Home | Current Version | Previous Version | Text Only | Print | Product List | Glossary On
Versions: 1 2 3 4 5 6 7 8 9 10 11 12 13 14
000
FTUS43 KJKL 261100
TAFLOZ
TAF
KLOZ 261140Z 2612/2712 31004KT P6SM BKN110
     FM270200 VRB04KT P6SM VCSH BKN030 OVC060
     FM270300 VRB05KT 5SM -SNRA OVC025=

USA.gov is the U.S. government's official web portal to all federal, state and local government web resources and services.